Terminal Aerodrome Forecast
Issued by NWS

Home | Current Version | Previous Version | Text Only | Print | Product List | Glossary On
Versions: 1 2 3 4 5 6 7 8 9 10 11 12 13 14 15 16 17 18 19
766
FTUS44 KOHX 010520
TAFCKV
TAF
KCKV 010520Z 0106/0206 00000KT P6SM SCT110
     FM010800 VRB03KT 4SM BR SKC
     FM011400 22006KT P6SM SCT050=

USA.gov is the U.S. government's official web portal to all federal, state and local government web resources and services.